sensor_id;sensor_type;location;lat;lon;timestamp;pressure;altitude;pressure_sealevel;temperature;humidity
33185;BME280;19550;42.872;25.494;2023-04-21T00:00:49;95902.75;;;9.72;100.00
33185;BME280;19550;42.872;25.494;2023-04-21T00:03:17;95904.25;;;9.69;100.00
33185;BME280;19550;42.872;25.494;2023-04-21T00:05:46;95908.16;;;9.68;100.00
33185;BME280;19550;42.872;25.494;2023-04-21T00:08:14;95908.66;;;9.62;100.00
33185;BME280;19550;42.872;25.494;2023-04-21T00:10:41;95907.16;;;9.64;100.00
33185;BME280;19550;42.872;25.494;2023-04-21T00:13:08;95905.72;;;9.67;100.00
33185;BME280;19550;42.872;25.494;2023-04-21T00:15:35;95907.34;;;9.68;100.00
33185;BME280;19550;42.872;25.494;2023-04-21T00:18:03;95904.88;;;9.66;100.00
33185;BME280;19550;42.872;25.494;2023-04-21T00:20:32;95903.13;;;9.70;100.00
33185;BME280;19550;42.872;25.494;2023-04-21T00:22:59;95898.88;;;9.73;100.00
33185;BME280;19550;42.872;25.494;2023-04-21T00:25:26;95900.31;;;9.79;100.00
33185;BME280;19550;42.872;25.494;2023-04-21T00:27:52;95892.81;;;9.79;100.00
33185;BME280;19550;42.872;25.494;2023-04-21T00:30:19;95884.22;;;9.72;100.00
33185;BME280;19550;42.872;25.494;2023-04-21T00:32:46;95883.25;;;9.77;100.00
33185;BME280;19550;42.872;25.494;2023-04-21T00:35:13;95883.25;;;9.77;100.00
33185;BME280;19550;42.872;25.494;2023-04-21T00:37:41;95878.34;;;9.74;100.00
33185;BME280;19550;42.872;25.494;2023-04-21T00:40:09;95874.59;;;9.78;100.00
33185;BME280;19550;42.872;25.494;2023-04-21T00:42:36;95869.06;;;9.87;100.00
33185;BME280;19550;42.872;25.494;2023-04-21T00:45:03;95867.59;;;9.81;100.00
33185;BME280;19550;42.872;25.494;2023-04-21T00:47:30;95869.56;;;9.80;100.00
33185;BME280;19550;42.872;25.494;2023-04-21T00:49:57;95863.19;;;9.80;100.00
33185;BME280;19550;42.872;25.494;2023-04-21T00:52:24;95867.75;;;9.84;100.00
33185;BME280;19550;42.872;25.494;2023-04-21T00:54:53;95851.03;;;9.64;100.00
33185;BME280;19550;42.872;25.494;2023-04-21T00:57:21;95854.91;;;9.71;100.00
33185;BME280;19550;42.872;25.494;2023-04-21T00:59:48;95853.13;;;9.75;100.00
33185;BME280;19550;42.872;25.494;2023-04-21T01:02:16;95851.31;;;9.88;100.00
33185;BME280;19550;42.872;25.494;2023-04-21T01:04:44;95848.41;;;9.76;100.00
33185;BME280;19550;42.872;25.494;2023-04-21T01:07:10;95840.88;;;9.85;100.00
33185;BME280;19550;42.872;25.494;2023-04-21T01:09:37;95838.97;;;9.77;100.00
33185;BME280;19550;42.872;25.494;2023-04-21T01:12:07;95840.75;;;9.73;100.00
33185;BME280;19550;42.872;25.494;2023-04-21T01:14:35;95839.63;;;9.74;100.00
33185;BME280;19550;42.872;25.494;2023-04-21T01:17:02;95845.00;;;9.70;100.00
33185;BME280;19550;42.872;25.494;2023-04-21T01:19:31;95845.31;;;9.69;100.00
33185;BME280;19550;42.872;25.494;2023-04-21T01:22:00;95840.44;;;9.66;100.00
33185;BME280;19550;42.872;25.494;2023-04-21T01:24:35;95832.81;;;9.63;100.00
33185;BME280;19550;42.872;25.494;2023-04-21T01:27:01;95843.19;;;9.66;100.00
33185;BME280;19550;42.872;25.494;2023-04-21T01:29:31;95846.16;;;9.69;100.00
33185;BME280;19550;42.872;25.494;2023-04-21T01:32:03;95835.34;;;9.85;100.00
33185;BME280;19550;42.872;25.494;2023-04-21T01:34:30;95839.75;;;9.77;100.00
33185;BME280;19550;42.872;25.494;2023-04-21T01:36:57;95836.69;;;9.70;100.00
33185;BME280;19550;42.872;25.494;2023-04-21T01:39:25;95848.09;;;9.69;100.00
33185;BME280;19550;42.872;25.494;2023-04-21T01:41:52;95849.22;;;9.59;100.00
33185;BME280;19550;42.872;25.494;2023-04-21T01:44:23;95842.88;;;9.58;100.00
33185;BME280;19550;42.872;25.494;2023-04-21T01:46:50;95843.19;;;9.66;100.00
33185;BME280;19550;42.872;25.494;2023-04-21T01:49:17;95846.28;;;9.64;100.00
33185;BME280;19550;42.872;25.494;2023-04-21T01:51:43;95843.03;;;9.71;100.00
33185;BME280;19550;42.872;25.494;2023-04-21T01:54:10;95847.09;;;9.73;100.00
33185;BME280;19550;42.872;25.494;2023-04-21T01:56:39;95832.94;;;9.66;100.00
33185;BME280;19550;42.872;25.494;2023-04-21T01:59:06;95836.72;;;9.62;100.00
33185;BME280;19550;42.872;25.494;2023-04-21T02:01:32;95836.22;;;9.60;100.00
33185;BME280;19550;42.872;25.494;2023-04-21T02:04:00;95839.47;;;9.53;100.00
33185;BME280;19550;42.872;25.494;2023-04-21T02:06:27;95834.63;;;9.50;100.00
33185;BME280;19550;42.872;25.494;2023-04-21T02:08:55;95839.16;;;9.54;100.00
33185;BME280;19550;42.872;25.494;2023-04-21T02:11:22;95842.91;;;9.50;100.00
33185;BME280;19550;42.872;25.494;2023-04-21T02:13:51;95843.56;;;9.47;100.00
33185;BME280;19550;42.872;25.494;2023-04-21T02:16:18;95841.78;;;9.42;100.00
33185;BME280;19550;42.872;25.494;2023-04-21T02:18:46;95839.66;;;9.39;100.00
33185;BME280;19550;42.872;25.494;2023-04-21T02:21:13;95843.72;;;9.33;100.00
33185;BME280;19550;42.872;25.494;2023-04-21T02:23:39;95833.97;;;9.36;100.00
33185;BME280;19550;42.872;25.494;2023-04-21T02:26:06;95839.03;;;9.34;100.00
33185;BME280;19550;42.872;25.494;2023-04-21T02:28:33;95836.88;;;9.31;100.00
33185;BME280;19550;42.872;25.494;2023-04-21T02:31:01;95839.00;;;9.25;100.00
33185;BME280;19550;42.872;25.494;2023-04-21T02:33:28;95835.94;;;9.27;100.00
33185;BME280;19550;42.872;25.494;2023-04-21T02:35:55;95841.13;;;9.20;100.00
33185;BME280;19550;42.872;25.494;2023-04-21T02:38:22;95838.38;;;9.20;100.00
33185;BME280;19550;42.872;25.494;2023-04-21T02:40:49;95838.53;;;9.14;100.00
33185;BME280;19550;42.872;25.494;2023-04-21T02:43:16;95836.75;;;9.10;100.00
33185;BME280;19550;42.872;25.494;2023-04-21T02:45:43;95841.28;;;9.06;100.00
33185;BME280;19550;42.872;25.494;2023-04-21T02:48:11;95831.06;;;9.06;100.00
33185;BME280;19550;42.872;25.494;2023-04-21T02:50:38;95830.91;;;9.03;100.00
33185;BME280;19550;42.872;25.494;2023-04-21T02:53:05;95826.66;;;9.05;100.00
33185;BME280;19550;42.872;25.494;2023-04-21T02:55:32;95820.47;;;9.00;100.00
33185;BME280;19550;42.872;25.494;2023-04-21T02:57:59;95828.78;;;9.00;100.00
33185;BME280;19550;42.872;25.494;2023-04-21T03:00:26;95823.06;;;9.05;100.00
33185;BME280;19550;42.872;25.494;2023-04-21T03:02:53;95824.56;;;9.02;100.00
33185;BME280;19550;42.872;25.494;2023-04-21T03:05:21;95830.72;;;9.08;100.00
33185;BME280;19550;42.872;25.494;2023-04-21T03:07:48;95833.31;;;9.04;100.00
33185;BME280;19550;42.872;25.494;2023-04-21T03:10:15;95833.66;;;8.94;100.00
33185;BME280;19550;42.872;25.494;2023-04-21T03:12:42;95838.69;;;8.84;100.00
33185;BME280;19550;42.872;25.494;2023-04-21T03:15:08;95843.75;;;8.90;100.00
33185;BME280;19550;42.872;25.494;2023-04-21T03:17:35;95840.78;;;8.87;100.00
33185;BME280;19550;42.872;25.494;2023-04-21T03:20:03;95833.28;;;8.78;100.00
33185;BME280;19550;42.872;25.494;2023-04-21T03:22:33;95831.03;;;8.98;100.00
33185;BME280;19550;42.872;25.494;2023-04-21T03:25:00;95826.31;;;8.98;100.00
33185;BME280;19550;42.872;25.494;2023-04-21T03:27:27;95839.19;;;8.94;100.00
33185;BME280;19550;42.872;25.494;2023-04-21T03:29:54;95834.94;;;8.88;100.00
33185;BME280;19550;42.872;25.494;2023-04-21T03:32:21;95842.28;;;8.84;100.00
33185;BME280;19550;42.872;25.494;2023-04-21T03:34:48;95836.41;;;8.86;100.00
33185;BME280;19550;42.872;25.494;2023-04-21T03:37:15;95838.34;;;8.85;100.00
33185;BME280;19550;42.872;25.494;2023-04-21T03:39:43;95834.78;;;9.02;100.00
33185;BME280;19550;42.872;25.494;2023-04-21T03:42:10;95839.50;;;9.01;100.00
33185;BME280;19550;42.872;25.494;2023-04-21T03:44:37;95835.59;;;8.94;100.00
33185;BME280;19550;42.872;25.494;2023-04-21T03:47:04;95835.75;;;8.89;100.00
33185;BME280;19550;42.872;25.494;2023-04-21T03:49:33;95847.47;;;8.94;100.00
33185;BME280;19550;42.872;25.494;2023-04-21T03:52:00;95838.22;;;8.90;100.00
33185;BME280;19550;42.872;25.494;2023-04-21T03:54:26;95842.94;;;8.90;100.00
33185;BME280;19550;42.872;25.494;2023-04-21T03:56:54;95839.50;;;8.84;100.00
33185;BME280;19550;42.872;25.494;2023-04-21T03:59:21;95851.00;;;8.77;100.00
33185;BME280;19550;42.872;25.494;2023-04-21T04:01:48;95842.91;;;8.81;100.00
33185;BME280;19550;42.872;25.494;2023-04-21T04:04:15;95850.03;;;8.73;100.00
33185;BME280;19550;42.872;25.494;2023-04-21T04:06:42;95853.63;;;8.74;100.00
33185;BME280;19550;42.872;25.494;2023-04-21T04:09:08;95853.00;;;8.77;100.00
33185;BME280;19550;42.872;25.494;2023-04-21T04:11:35;95852.66;;;8.87;100.00
33185;BME280;19550;42.872;25.494;2023-04-21T04:14:03;95855.91;;;8.81;100.00
33185;BME280;19550;42.872;25.494;2023-04-21T04:16:31;95859.66;;;8.93;100.00
33185;BME280;19550;42.872;25.494;2023-04-21T04:18:59;95867.78;;;8.98;100.00
33185;BME280;19550;42.872;25.494;2023-04-21T04:21:25;95872.50;;;8.98;100.00
33185;BME280;19550;42.872;25.494;2023-04-21T04:23:52;95865.03;;;8.98;100.00
33185;BME280;19550;42.872;25.494;2023-04-21T04:26:19;95866.34;;;9.01;100.00
33185;BME280;19550;42.872;25.494;2023-04-21T04:28:49;95873.50;;;9.10;100.00
33185;BME280;19550;42.872;25.494;2023-04-21T04:31:17;95875.31;;;9.24;100.00
33185;BME280;19550;42.872;25.494;2023-04-21T04:33:44;95870.75;;;9.28;100.00
33185;BME280;19550;42.872;25.494;2023-04-21T04:36:11;95876.91;;;9.25;100.00
33185;BME280;19550;42.872;25.494;2023-04-21T04:38:38;95873.81;;;9.26;100.00
33185;BME280;19550;42.872;25.494;2023-04-21T04:41:06;95886.38;;;9.24;100.00
33185;BME280;19550;42.872;25.494;2023-04-21T04:43:33;95882.78;;;9.23;100.00
33185;BME280;19550;42.872;25.494;2023-04-21T04:46:01;95876.91;;;9.33;100.00
33185;BME280;19550;42.872;25.494;2023-04-21T04:48:29;95881.31;;;9.43;100.00
33185;BME280;19550;42.872;25.494;2023-04-21T04:50:56;95881.78;;;9.53;100.00
33185;BME280;19550;42.872;25.494;2023-04-21T04:53:23;95884.06;;;9.60;100.00
33185;BME280;19550;42.872;25.494;2023-04-21T04:55:50;95885.69;;;9.61;100.00
33185;BME280;19550;42.872;25.494;2023-04-21T04:58:18;95888.78;;;9.60;100.00
33185;BME280;19550;42.872;25.494;2023-04-21T05:00:44;95892.19;;;9.65;100.00
33185;BME280;19550;42.872;25.494;2023-04-21T05:03:11;95892.81;;;9.79;100.00
33185;BME280;19550;42.872;25.494;2023-04-21T05:05:39;95891.69;;;9.89;100.00
33185;BME280;19550;42.872;25.494;2023-04-21T05:08:06;95900.78;;;9.98;100.00
33185;BME280;19550;42.872;25.494;2023-04-21T05:10:33;95897.03;;;10.03;100.00
33185;BME280;19550;42.872;25.494;2023-04-21T05:13:00;95899.13;;;10.14;100.00
33185;BME280;19550;42.872;25.494;2023-04-21T05:15:27;95902.53;;;10.20;100.00
33185;BME280;19550;42.872;25.494;2023-04-21T05:17:53;95906.41;;;10.36;100.00
33185;BME280;19550;42.872;25.494;2023-04-21T05:20:20;95893.00;;;10.47;100.00
33185;BME280;19550;42.872;25.494;2023-04-21T05:22:49;95897.00;;;10.58;100.00
33185;BME280;19550;42.872;25.494;2023-04-21T05:25:15;95898.28;;;10.69;100.00
33185;BME280;19550;42.872;25.494;2023-04-21T05:27:42;95908.03;;;10.75;100.00
33185;BME280;19550;42.872;25.494;2023-04-21T05:30:10;95899.63;;;10.92;100.00
33185;BME280;19550;42.872;25.494;2023-04-21T05:32:37;95896.19;;;10.95;100.00
33185;BME280;19550;42.872;25.494;2023-04-21T05:35:04;95903.97;;;11.02;100.00
33185;BME280;19550;42.872;25.494;2023-04-21T05:37:31;95897.81;;;11.17;100.00
33185;BME280;19550;42.872;25.494;2023-04-21T05:39:59;95902.94;;;11.36;100.00
33185;BME280;19550;42.872;25.494;2023-04-21T05:42:26;95901.97;;;11.52;100.00
33185;BME280;19550;42.872;25.494;2023-04-21T05:44:52;95890.00;;;11.61;100.00
33185;BME280;19550;42.872;25.494;2023-04-21T05:47:19;95896.47;;;11.85;100.00
33185;BME280;19550;42.872;25.494;2023-04-21T05:49:46;95902.25;;;12.13;100.00
33185;BME280;19550;42.872;25.494;2023-04-21T05:52:14;95886.56;;;12.29;100.00
33185;BME280;19550;42.872;25.494;2023-04-21T05:54:42;95894.19;;;12.32;100.00
33185;BME280;19550;42.872;25.494;2023-04-21T05:57:10;95895.34;;;12.31;100.00
33185;BME280;19550;42.872;25.494;2023-04-21T05:59:37;95900.94;;;12.44;100.00
33185;BME280;19550;42.872;25.494;2023-04-21T06:02:04;95896.66;;;12.58;100.00
33185;BME280;19550;42.872;25.494;2023-04-21T06:04:31;95893.91;;;12.70;100.00
33185;BME280;19550;42.872;25.494;2023-04-21T06:07:03;95906.78;;;12.99;100.00
33185;BME280;19550;42.872;25.494;2023-04-21T06:09:30;95911.66;;;13.02;100.00
33185;BME280;19550;42.872;25.494;2023-04-21T06:11:57;95903.91;;;13.20;100.00
33185;BME280;19550;42.872;25.494;2023-04-21T06:14:25;95903.41;;;13.42;100.00
33185;BME280;19550;42.872;25.494;2023-04-21T06:16:52;95911.72;;;13.55;100.00
33185;BME280;19550;42.872;25.494;2023-04-21T06:19:19;95898.28;;;13.44;100.00
33185;BME280;19550;42.872;25.494;2023-04-21T06:21:46;95913.25;;;13.40;100.00
33185;BME280;19550;42.872;25.494;2023-04-21T06:24:13;95919.31;;;13.42;99.64
33185;BME280;19550;42.872;25.494;2023-04-21T06:26:40;95922.75;;;13.51;98.58
33185;BME280;19550;42.872;25.494;2023-04-21T06:29:06;95923.47;;;13.48;100.00
33185;BME280;19550;42.872;25.494;2023-04-21T06:31:35;95921.50;;;13.48;96.78
33185;BME280;19550;42.872;25.494;2023-04-21T06:34:01;95921.50;;;13.48;97.25
33185;BME280;19550;42.872;25.494;2023-04-21T06:36:28;95915.09;;;13.48;100.00
33185;BME280;19550;42.872;25.494;2023-04-21T06:38:55;95925.31;;;13.44;98.67
33185;BME280;19550;42.872;25.494;2023-04-21T06:41:22;95933.56;;;13.40;100.00
33185;BME280;19550;42.872;25.494;2023-04-21T06:43:48;95930.88;;;13.44;98.34
33185;BME280;19550;42.872;25.494;2023-04-21T06:46:15;95937.16;;;13.41;96.72
33185;BME280;19550;42.872;25.494;2023-04-21T06:48:43;95935.09;;;13.26;100.00
33185;BME280;19550;42.872;25.494;2023-04-21T06:51:10;95939.22;;;13.44;99.33
33185;BME280;19550;42.872;25.494;2023-04-21T06:53:37;95932.50;;;13.45;97.99
33185;BME280;19550;42.872;25.494;2023-04-21T06:56:04;95931.53;;;13.65;100.00
33185;BME280;19550;42.872;25.494;2023-04-21T06:58:31;95943.84;;;13.64;98.38
33185;BME280;19550;42.872;25.494;2023-04-21T07:00:58;95944.56;;;13.61;96.05
33185;BME280;19550;42.872;25.494;2023-04-21T07:03:25;95942.13;;;13.60;94.41
33185;BME280;19550;42.872;25.494;2023-04-21T07:05:53;95947.78;;;13.63;96.42
33185;BME280;19550;42.872;25.494;2023-04-21T07:08:20;95945.34;;;13.74;96.00
33185;BME280;19550;42.872;25.494;2023-04-21T07:10:46;95941.81;;;13.89;96.29
33185;BME280;19550;42.872;25.494;2023-04-21T07:13:13;95951.06;;;13.93;95.65
33185;BME280;19550;42.872;25.494;2023-04-21T07:15:40;95953.25;;;14.00;94.13
33185;BME280;19550;42.872;25.494;2023-04-21T07:18:07;95956.47;;;14.14;94.49
33185;BME280;19550;42.872;25.494;2023-04-21T07:20:33;95950.56;;;14.31;98.77
33185;BME280;19550;42.872;25.494;2023-04-21T07:23:02;95950.06;;;14.13;91.57
33185;BME280;19550;42.872;25.494;2023-04-21T07:25:28;95963.47;;;14.08;93.58
33185;BME280;19550;42.872;25.494;2023-04-21T07:27:55;95971.44;;;13.81;94.50
33185;BME280;19550;42.872;25.494;2023-04-21T07:30:22;95969.25;;;13.75;94.20
33185;BME280;19550;42.872;25.494;2023-04-21T07:32:49;95964.31;;;13.84;93.83
33185;BME280;19550;42.872;25.494;2023-04-21T07:35:16;95963.63;;;13.87;95.88
33185;BME280;19550;42.872;25.494;2023-04-21T07:37:43;95960.72;;;13.96;93.73
33185;BME280;19550;42.872;25.494;2023-04-21T07:40:11;95964.06;;;14.01;91.38
33185;BME280;19550;42.872;25.494;2023-04-21T07:42:38;95962.72;;;14.11;92.23
33185;BME280;19550;42.872;25.494;2023-04-21T07:45:06;95966.53;;;14.18;91.67
33185;BME280;19550;42.872;25.494;2023-04-21T07:47:33;95952.66;;;14.34;96.94
33185;BME280;19550;42.872;25.494;2023-04-21T07:50:00;95968.66;;;14.37;92.47
33185;BME280;19550;42.872;25.494;2023-04-21T07:52:27;95969.09;;;14.51;92.20
33185;BME280;19550;42.872;25.494;2023-04-21T07:54:54;95969.38;;;14.46;90.86
33185;BME280;19550;42.872;25.494;2023-04-21T07:57:22;95974.16;;;14.61;91.51
33185;BME280;19550;42.872;25.494;2023-04-21T07:59:49;95975.06;;;14.65;90.44
33185;BME280;19550;42.872;25.494;2023-04-21T08:02:16;95989.81;;;14.66;90.73
33185;BME280;19550;42.872;25.494;2023-04-21T08:04:43;95978.13;;;14.76;93.13
33185;BME280;19550;42.872;25.494;2023-04-21T08:07:10;95980.13;;;14.76;93.59
33185;BME280;19550;42.872;25.494;2023-04-21T08:09:38;95975.53;;;14.83;91.67
33185;BME280;19550;42.872;25.494;2023-04-21T08:12:05;95979.13;;;14.84;90.07
33185;BME280;19550;42.872;25.494;2023-04-21T08:14:34;95978.41;;;14.71;88.86
33185;BME280;19550;42.872;25.494;2023-04-21T08:17:00;95983.25;;;14.58;91.11
33185;BME280;19550;42.872;25.494;2023-04-21T08:19:27;95988.81;;;14.58;91.41
33185;BME280;19550;42.872;25.494;2023-04-21T08:21:54;95990.63;;;14.66;92.33
33185;BME280;19550;42.872;25.494;2023-04-21T08:24:21;95989.91;;;14.54;91.71
33185;BME280;19550;42.872;25.494;2023-04-21T08:26:48;95983.97;;;14.55;93.06
33185;BME280;19550;42.872;25.494;2023-04-21T08:29:15;95986.50;;;14.60;92.28
33185;BME280;19550;42.872;25.494;2023-04-21T08:31:43;95995.78;;;14.80;92.02
33185;BME280;19550;42.872;25.494;2023-04-21T08:34:10;96000.44;;;14.60;91.70
33185;BME280;19550;42.872;25.494;2023-04-21T08:36:37;95997.63;;;14.32;92.22
33185;BME280;19550;42.872;25.494;2023-04-21T08:39:05;96004.34;;;14.44;92.48
33185;BME280;19550;42.872;25.494;2023-04-21T08:41:32;95992.47;;;14.47;92.25
33185;BME280;19550;42.872;25.494;2023-04-21T08:43:59;96002.84;;;14.34;93.18
33185;BME280;19550;42.872;25.494;2023-04-21T08:46:27;96000.31;;;14.29;95.73
33185;BME280;19550;42.872;25.494;2023-04-21T08:48:57;95999.25;;;14.33;95.07
33185;BME280;19550;42.872;25.494;2023-04-21T08:51:23;95997.25;;;14.46;94.19
33185;BME280;19550;42.872;25.494;2023-04-21T08:53:53;95992.69;;;14.69;93.32
33185;BME280;19550;42.872;25.494;2023-04-21T08:56:20;96003.19;;;14.88;92.55
33185;BME280;19550;42.872;25.494;2023-04-21T08:58:47;96001.06;;;15.13;90.16
33185;BME280;19550;42.872;25.494;2023-04-21T09:01:14;95996.63;;;15.43;89.80
33185;BME280;19550;42.872;25.494;2023-04-21T09:03:40;95991.94;;;15.63;88.08
33185;BME280;19550;42.872;25.494;2023-04-21T09:06:09;95990.31;;;15.46;87.18
33185;BME280;19550;42.872;25.494;2023-04-21T09:08:37;95995.56;;;15.48;88.43
33185;BME280;19550;42.872;25.494;2023-04-21T09:11:04;95997.63;;;15.35;89.39
33185;BME280;19550;42.872;25.494;2023-04-21T09:13:32;95988.22;;;15.43;88.58
33185;BME280;19550;42.872;25.494;2023-04-21T09:16:01;95990.31;;;15.31;86.53
33185;BME280;19550;42.872;25.494;2023-04-21T09:18:29;95993.84;;;15.12;87.98
33185;BME280;19550;42.872;25.494;2023-04-21T09:21:07;95987.53;;;14.99;87.23
33185;BME280;19550;42.872;25.494;2023-04-21T09:23:42;95991.31;;;14.91;86.93
33185;BME280;19550;42.872;25.494;2023-04-21T09:26:10;95984.63;;;14.96;87.22
33185;BME280;19550;42.872;25.494;2023-04-21T09:28:40;95981.31;;;15.37;87.49
33185;BME280;19550;42.872;25.494;2023-04-21T09:31:12;95978.41;;;15.49;83.69
33185;BME280;19550;42.872;25.494;2023-04-21T09:33:44;95982.19;;;16.08;82.90
33185;BME280;19550;42.872;25.494;2023-04-21T09:36:17;95978.22;;;16.47;82.90
33185;BME280;19550;42.872;25.494;2023-04-21T09:38:49;95975.19;;;16.56;82.33
33185;BME280;19550;42.872;25.494;2023-04-21T09:41:17;95979.09;;;16.32;81.46
33185;BME280;19550;42.872;25.494;2023-04-21T09:43:44;95981.50;;;15.95;80.38
33185;BME280;19550;42.872;25.494;2023-04-21T09:46:11;95979.59;;;15.99;82.08
33185;BME280;19550;42.872;25.494;2023-04-21T09:48:42;95970.41;;;15.99;81.98
33185;BME280;19550;42.872;25.494;2023-04-21T09:51:10;95975.84;;;16.11;81.96
33185;BME280;19550;42.872;25.494;2023-04-21T09:53:39;95968.06;;;16.39;80.01
33185;BME280;19550;42.872;25.494;2023-04-21T09:56:11;95976.81;;;16.38;78.04
33185;BME280;19550;42.872;25.494;2023-04-21T09:58:40;95962.81;;;16.38;78.06
33185;BME280;19550;42.872;25.494;2023-04-21T10:01:10;95970.78;;;16.36;78.95
33185;BME280;19550;42.872;25.494;2023-04-21T10:03:38;95974.94;;;16.61;80.28
33185;BME280;19550;42.872;25.494;2023-04-21T10:06:06;95981.03;;;16.28;76.34
33185;BME280;19550;42.872;25.494;2023-04-21T10:08:34;95983.81;;;16.28;78.11
33185;BME280;19550;42.872;25.494;2023-04-21T10:11:01;95978.63;;;16.11;78.05
33185;BME280;19550;42.872;25.494;2023-04-21T10:13:31;95973.91;;;15.96;81.98
33185;BME280;19550;42.872;25.494;2023-04-21T10:16:03;95968.53;;;15.87;86.37
33185;BME280;19550;42.872;25.494;2023-04-21T10:18:34;95972.75;;;15.62;89.69
33185;BME280;19550;42.872;25.494;2023-04-21T10:21:03;95973.94;;;15.61;91.66
33185;BME280;19550;42.872;25.494;2023-04-21T10:23:41;95965.13;;;15.78;91.33
33185;BME280;19550;42.872;25.494;2023-04-21T10:26:10;95960.97;;;15.87;92.54
33185;BME280;19550;42.872;25.494;2023-04-21T10:28:43;95970.28;;;15.76;94.29
33185;BME280;19550;42.872;25.494;2023-04-21T10:31:21;95978.25;;;15.58;95.43
33185;BME280;19550;42.872;25.494;2023-04-21T10:34:17;95975.19;;;15.47;95.58
33185;BME280;19550;42.872;25.494;2023-04-21T10:37:12;95978.19;;;15.55;98.28
33185;BME280;19550;42.872;25.494;2023-04-21T10:39:52;95970.19;;;15.72;98.06
33185;BME280;19550;42.872;25.494;2023-04-21T10:45:09;95978.41;;;15.65;94.68
33185;BME280;19550;42.872;25.494;2023-04-21T10:47:41;95967.88;;;15.43;94.48
33185;BME280;19550;42.872;25.494;2023-04-21T10:50:22;95966.88;;;15.51;97.96
33185;BME280;19550;42.872;25.494;2023-04-21T10:52:55;95971.00;;;15.73;96.28
33185;BME280;19550;42.872;25.494;2023-04-21T10:55:26;95976.38;;;15.62;96.30
33185;BME280;19550;42.872;25.494;2023-04-21T10:57:54;95970.16;;;15.88;97.31
33185;BME280;19550;42.872;25.494;2023-04-21T11:00:23;95969.78;;;15.89;95.34
33185;BME280;19550;42.872;25.494;2023-04-21T11:02:58;95968.88;;;16.01;95.35
33185;BME280;19550;42.872;25.494;2023-04-21T11:05:35;95965.47;;;16.11;92.36
33185;BME280;19550;42.872;25.494;2023-04-21T11:08:10;95975.03;;;16.10;90.63
33185;BME280;19550;42.872;25.494;2023-04-21T11:10:47;95972.22;;;15.91;89.84
33185;BME280;19550;42.872;25.494;2023-04-21T11:13:15;95969.91;;;16.12;91.27
33185;BME280;19550;42.872;25.494;2023-04-21T11:15:54;95974.38;;;16.17;90.05
33185;BME280;19550;42.872;25.494;2023-04-21T11:18:31;95980.94;;;16.24;88.90
33185;BME280;19550;42.872;25.494;2023-04-21T11:21:06;95964.81;;;16.37;87.45
33185;BME280;19550;42.872;25.494;2023-04-21T11:23:33;95974.44;;;16.59;85.49
33185;BME280;19550;42.872;25.494;2023-04-21T11:26:00;95984.44;;;17.21;86.07
33185;BME280;19550;42.872;25.494;2023-04-21T11:28:26;95970.25;;;17.11;85.70
33185;BME280;19550;42.872;25.494;2023-04-21T11:30:55;95978.16;;;17.05;84.73
33185;BME280;19550;42.872;25.494;2023-04-21T11:33:21;95972.84;;;17.23;84.61
33185;BME280;19550;42.872;25.494;2023-04-21T11:35:48;95977.22;;;17.20;80.44
33185;BME280;19550;42.872;25.494;2023-04-21T11:38:16;95977.47;;;17.12;75.40
33185;BME280;19550;42.872;25.494;2023-04-21T11:40:45;95979.19;;;16.97;70.62
33185;BME280;19550;42.872;25.494;2023-04-21T11:43:12;95963.41;;;17.08;70.24
33185;BME280;19550;42.872;25.494;2023-04-21T11:45:39;95962.34;;;17.16;69.17
33185;BME280;19550;42.872;25.494;2023-04-21T11:48:14;95969.56;;;17.40;69.57
33185;BME280;19550;42.872;25.494;2023-04-21T11:50:46;95963.31;;;18.03;69.85
33185;BME280;19550;42.872;25.494;2023-04-21T11:53:13;95965.31;;;18.32;65.60
33185;BME280;19550;42.872;25.494;2023-04-21T11:55:41;95958.19;;;18.08;66.82
33185;BME280;19550;42.872;25.494;2023-04-21T11:58:08;95958.63;;;17.80;68.37
33185;BME280;19550;42.872;25.494;2023-04-21T12:00:36;95963.63;;;17.68;68.00
33185;BME280;19550;42.872;25.494;2023-04-21T12:03:07;95960.41;;;17.20;70.17
33185;BME280;19550;42.872;25.494;2023-04-21T12:05:36;95958.09;;;17.26;71.06
33185;BME280;19550;42.872;25.494;2023-04-21T12:08:03;95957.75;;;17.27;70.57
33185;BME280;19550;42.872;25.494;2023-04-21T12:10:30;95957.06;;;17.34;69.74
33185;BME280;19550;42.872;25.494;2023-04-21T12:12:58;95956.59;;;17.32;70.79
33185;BME280;19550;42.872;25.494;2023-04-21T12:15:25;95936.09;;;17.51;67.10
33185;BME280;19550;42.872;25.494;2023-04-21T12:17:55;95952.22;;;17.83;67.10
33185;BME280;19550;42.872;25.494;2023-04-21T12:20:24;95945.03;;;18.12;65.65
33185;BME280;19550;42.872;25.494;2023-04-21T12:22:52;95941.44;;;19.19;65.27
33185;BME280;19550;42.872;25.494;2023-04-21T12:25:19;95941.81;;;19.62;65.97
33185;BME280;19550;42.872;25.494;2023-04-21T12:27:49;95936.75;;;19.34;63.08
33185;BME280;19550;42.872;25.494;2023-04-21T12:30:16;95935.59;;;19.38;63.97
33185;BME280;19550;42.872;25.494;2023-04-21T12:32:43;95940.25;;;19.20;63.27
33185;BME280;19550;42.872;25.494;2023-04-21T12:35:11;95942.09;;;18.65;64.76
33185;BME280;19550;42.872;25.494;2023-04-21T12:37:38;95936.56;;;18.09;67.39
33185;BME280;19550;42.872;25.494;2023-04-21T12:40:07;95936.19;;;18.10;69.03
33185;BME280;19550;42.872;25.494;2023-04-21T12:42:35;95942.19;;;18.76;66.98
33185;BME280;19550;42.872;25.494;2023-04-21T12:45:01;95938.59;;;18.75;68.71
33185;BME280;19550;42.872;25.494;2023-04-21T12:47:29;95932.50;;;18.66;69.68
33185;BME280;19550;42.872;25.494;2023-04-21T12:49:56;95934.03;;;18.30;69.17
33185;BME280;19550;42.872;25.494;2023-04-21T12:52:23;95943.94;;;18.20;70.39
33185;BME280;19550;42.872;25.494;2023-04-21T12:54:50;95933.25;;;18.00;71.58